Etusivu
METAR-TAF:

METAR-TAF

Lentoasemat :

Indira Gandhin kansainvälinen lentoasema

New Delhi, Intia

Leveyspiiri: 28-34N, Pituuspiiri: 077-07E, korkeus merenpinnasta: 220 m

Tämänhetkinen sää

Tämä raportti tehtiin 21 minuuttia sitten, kello 10.30 UTC
Tuuli 5 kn idästä
Lämpötila 42°C
Kosteus 21%
Ilmanpaine 1001 hPa
Näkyvyys: 4500 m
usvaa

METAR: VIDP 211030Z 08005KT 4500 HZ NSC 42/15 Q1001 BECMG 5000 HZ

Aika: 16:21 (10:51 UTC)

Sääennuste

Tämä raportti tehtiin 2 tuntia ja 51 minuuttia sitten, kello 08.00 UTC
Ennuste voimassa 21. päivästä klo 09 UTC - 21. päivään klo 18 UTC
Tuuli 8 kn lännestä/luoteesta puuskistuen 18 kn:hen
Näkyvyys: 5000 m
usvaa
Tulossa
21. päivästä klo 15 UTC - 21. päivään klo 17 UTC
Tuuli 8 kn lännestä/lounaasta
Näkyvyys: 3500 m
Muutamia pilviä 10000 ft:n korkeudessa
usvaa,

TAF: VIDP 210800Z 2109/2118 29008G18KT 5000 HZ NSC BECMG 2115/2117 25008KT 3500 HZ FEW100

Säähavainnot ja -ennusteet yli 4000 lentoasemalta (METAR- ja TAF-raportit).

Käytössä olevat sääasemat on merkitty karttaan keltaisilla ja punaisilla pisteillä.

Aseta hiiri pisteen päälle nähdäksesi sääaseman nimen.

Klikkaa sitten nähdäksesi säähavainnot ja -ennusteet.

Kartan vaihtaminen: klikkaa mustalla rastilla varustettuja vihreitä pisteitä, niin voit zoomata sisään; viivalla varustettua vihreää pistettä, niin voit zoomata ulos tai vihreitä nuolia, niin pääset viereisille kartoille.


METAR-TAF: